sensor_id;sensor_type;location;lat;lon;timestamp;pressure;altitude;pressure_sealevel;temperature;humidity
53262;BME280;39658;51.090;-1.786;2023-07-09T00:00:10;101446.22;;;13.74;100.00
53262;BME280;39658;51.090;-1.786;2023-07-09T00:02:40;101445.59;;;13.71;100.00
53262;BME280;39658;51.090;-1.786;2023-07-09T00:05:11;101453.84;;;13.66;100.00
53262;BME280;39658;51.090;-1.786;2023-07-09T00:07:39;101455.00;;;13.62;100.00
53262;BME280;39658;51.090;-1.786;2023-07-09T00:10:13;101458.59;;;13.61;100.00
53262;BME280;39658;51.090;-1.786;2023-07-09T00:12:40;101450.63;;;13.61;100.00
53262;BME280;39658;51.090;-1.786;2023-07-09T00:15:09;101448.88;;;13.61;100.00
53262;BME280;39658;51.090;-1.786;2023-07-09T00:17:36;101453.28;;;13.61;100.00
53262;BME280;39658;51.090;-1.786;2023-07-09T00:20:11;101467.41;;;13.61;100.00
53262;BME280;39658;51.090;-1.786;2023-07-09T00:22:39;101467.94;;;13.67;100.00
53262;BME280;39658;51.090;-1.786;2023-07-09T00:25:09;101471.88;;;13.74;100.00
53262;BME280;39658;51.090;-1.786;2023-07-09T00:27:39;101456.63;;;13.77;100.00
53262;BME280;39658;51.090;-1.786;2023-07-09T00:30:10;101460.09;;;13.78;100.00
53262;BME280;39658;51.090;-1.786;2023-07-09T00:32:41;101463.72;;;13.77;100.00
53262;BME280;39658;51.090;-1.786;2023-07-09T00:35:10;101453.34;;;13.74;100.00
53262;BME280;39658;51.090;-1.786;2023-07-09T00:37:41;101458.94;;;13.69;100.00
53262;BME280;39658;51.090;-1.786;2023-07-09T00:40:13;101453.84;;;13.66;100.00
53262;BME280;39658;51.090;-1.786;2023-07-09T00:42:43;101460.00;;;13.67;100.00
53262;BME280;39658;51.090;-1.786;2023-07-09T00:45:17;101446.75;;;13.67;100.00
53262;BME280;39658;51.090;-1.786;2023-07-09T00:47:56;101441.97;;;13.59;100.00
53262;BME280;39658;51.090;-1.786;2023-07-09T00:50:35;101451.81;;;13.57;100.00
53262;BME280;39658;51.090;-1.786;2023-07-09T00:53:05;101449.47;;;13.52;100.00
53262;BME280;39658;51.090;-1.786;2023-07-09T00:55:40;101450.63;;;13.48;100.00
53262;BME280;39658;51.090;-1.786;2023-07-09T00:58:12;101448.38;;;13.42;100.00
53262;BME280;39658;51.090;-1.786;2023-07-09T01:00:44;101449.47;;;13.39;100.00
53262;BME280;39658;51.090;-1.786;2023-07-09T01:03:20;101450.75;;;13.32;100.00
53262;BME280;39658;51.090;-1.786;2023-07-09T01:05:49;101455.53;;;13.27;100.00
53262;BME280;39658;51.090;-1.786;2023-07-09T01:08:17;101457.59;;;13.22;100.00
53262;BME280;39658;51.090;-1.786;2023-07-09T01:10:45;101462.38;;;13.17;100.00
53262;BME280;39658;51.090;-1.786;2023-07-09T01:13:12;101451.88;;;13.15;100.00
53262;BME280;39658;51.090;-1.786;2023-07-09T01:15:39;101454.81;;;13.10;100.00
53262;BME280;39658;51.090;-1.786;2023-07-09T01:18:06;101449.81;;;13.06;100.00
53262;BME280;39658;51.090;-1.786;2023-07-09T01:20:34;101454.56;;;13.01;100.00
53262;BME280;39658;51.090;-1.786;2023-07-09T01:23:02;101463.75;;;12.95;100.00
53262;BME280;39658;51.090;-1.786;2023-07-09T01:25:31;101457.91;;;12.90;100.00
53262;BME280;39658;51.090;-1.786;2023-07-09T01:27:58;101464.34;;;12.86;100.00
53262;BME280;39658;51.090;-1.786;2023-07-09T01:30:29;101470.03;;;12.80;100.00
53262;BME280;39658;51.090;-1.786;2023-07-09T01:32:58;101480.91;;;12.75;100.00
53262;BME280;39658;51.090;-1.786;2023-07-09T01:35:27;101486.75;;;12.66;100.00
53262;BME280;39658;51.090;-1.786;2023-07-09T01:37:55;101485.28;;;12.62;100.00
53262;BME280;39658;51.090;-1.786;2023-07-09T01:40:24;101484.59;;;12.58;100.00
53262;BME280;39658;51.090;-1.786;2023-07-09T01:42:53;101477.81;;;12.54;100.00
53262;BME280;39658;51.090;-1.786;2023-07-09T01:45:21;101476.28;;;12.50;100.00
53262;BME280;39658;51.090;-1.786;2023-07-09T01:47:48;101473.00;;;12.46;100.00
53262;BME280;39658;51.090;-1.786;2023-07-09T01:50:15;101474.88;;;12.44;100.00
53262;BME280;39658;51.090;-1.786;2023-07-09T01:52:44;101476.69;;;12.44;100.00
53262;BME280;39658;51.090;-1.786;2023-07-09T01:55:13;101483.59;;;12.46;100.00
53262;BME280;39658;51.090;-1.786;2023-07-09T01:57:43;101467.53;;;12.49;100.00
53262;BME280;39658;51.090;-1.786;2023-07-09T02:00:13;101460.34;;;12.51;100.00
53262;BME280;39658;51.090;-1.786;2023-07-09T02:02:40;101459.31;;;12.54;100.00
53262;BME280;39658;51.090;-1.786;2023-07-09T02:05:10;101455.69;;;12.55;100.00
53262;BME280;39658;51.090;-1.786;2023-07-09T02:07:37;101452.94;;;12.56;100.00
53262;BME280;39658;51.090;-1.786;2023-07-09T02:10:05;101459.31;;;12.54;100.00
53262;BME280;39658;51.090;-1.786;2023-07-09T02:12:32;101459.41;;;12.52;100.00
53262;BME280;39658;51.090;-1.786;2023-07-09T02:15:00;101455.31;;;12.47;100.00
53262;BME280;39658;51.090;-1.786;2023-07-09T02:17:27;101461.75;;;12.43;100.00
53262;BME280;39658;51.090;-1.786;2023-07-09T02:19:53;101453.34;;;12.36;100.00
53262;BME280;39658;51.090;-1.786;2023-07-09T02:22:20;101465.13;;;12.30;100.00
53262;BME280;39658;51.090;-1.786;2023-07-09T02:24:47;101465.31;;;12.27;100.00
53262;BME280;39658;51.090;-1.786;2023-07-09T02:27:16;101459.47;;;12.22;100.00
53262;BME280;39658;51.090;-1.786;2023-07-09T02:29:43;101467.69;;;12.17;100.00
53262;BME280;39658;51.090;-1.786;2023-07-09T02:32:15;101464.59;;;12.11;100.00
53262;BME280;39658;51.090;-1.786;2023-07-09T02:34:43;101457.13;;;12.03;100.00
53262;BME280;39658;51.090;-1.786;2023-07-09T02:37:15;101455.69;;;11.97;100.00
53262;BME280;39658;51.090;-1.786;2023-07-09T02:39:42;101455.88;;;11.94;100.00
53262;BME280;39658;51.090;-1.786;2023-07-09T02:42:09;101463.03;;;11.92;100.00
53262;BME280;39658;51.090;-1.786;2023-07-09T02:44:37;101466.53;;;11.93;100.00
53262;BME280;39658;51.090;-1.786;2023-07-09T02:47:05;101466.78;;;11.88;100.00
53262;BME280;39658;51.090;-1.786;2023-07-09T02:49:33;101464.41;;;11.83;100.00
53262;BME280;39658;51.090;-1.786;2023-07-09T02:52:00;101453.66;;;11.86;100.00
53262;BME280;39658;51.090;-1.786;2023-07-09T02:54:27;101448.81;;;11.95;100.00
53262;BME280;39658;51.090;-1.786;2023-07-09T02:56:54;101458.31;;;11.97;100.00
53262;BME280;39658;51.090;-1.786;2023-07-09T02:59:21;101454.94;;;11.95;100.00
53262;BME280;39658;51.090;-1.786;2023-07-09T03:01:49;101462.19;;;11.92;100.00
53262;BME280;39658;51.090;-1.786;2023-07-09T03:04:16;101466.44;;;11.94;100.00
53262;BME280;39658;51.090;-1.786;2023-07-09T03:06:47;101470.19;;;11.90;100.00
53262;BME280;39658;51.090;-1.786;2023-07-09T03:09:13;101466.03;;;11.86;100.00
53262;BME280;39658;51.090;-1.786;2023-07-09T03:11:40;101461.00;;;11.81;100.00
53262;BME280;39658;51.090;-1.786;2023-07-09T03:14:08;101451.56;;;11.77;100.00
53262;BME280;39658;51.090;-1.786;2023-07-09T03:16:35;101456.19;;;11.74;100.00
53262;BME280;39658;51.090;-1.786;2023-07-09T03:19:02;101449.38;;;11.70;100.00
53262;BME280;39658;51.090;-1.786;2023-07-09T03:21:30;101446.16;;;11.64;100.00
53262;BME280;39658;51.090;-1.786;2023-07-09T03:23:59;101445.59;;;11.59;100.00
53262;BME280;39658;51.090;-1.786;2023-07-09T03:26:25;101443.97;;;11.57;100.00
53262;BME280;39658;51.090;-1.786;2023-07-09T03:28:53;101443.31;;;11.53;100.00
53262;BME280;39658;51.090;-1.786;2023-07-09T03:31:21;101439.03;;;11.50;100.00
53262;BME280;39658;51.090;-1.786;2023-07-09T03:33:48;101442.44;;;11.53;100.00
53262;BME280;39658;51.090;-1.786;2023-07-09T03:36:15;101443.03;;;11.58;100.00
53262;BME280;39658;51.090;-1.786;2023-07-09T03:38:42;101449.72;;;11.63;100.00
53262;BME280;39658;51.090;-1.786;2023-07-09T03:41:10;101447.09;;;11.63;100.00
53262;BME280;39658;51.090;-1.786;2023-07-09T03:43:37;101448.97;;;11.61;100.00
53262;BME280;39658;51.090;-1.786;2023-07-09T03:46:04;101456.16;;;11.59;100.00
53262;BME280;39658;51.090;-1.786;2023-07-09T03:48:30;101451.72;;;11.60;100.00
53262;BME280;39658;51.090;-1.786;2023-07-09T03:50:57;101455.19;;;11.60;100.00
53262;BME280;39658;51.090;-1.786;2023-07-09T03:53:24;101453.50;;;11.59;100.00
53262;BME280;39658;51.090;-1.786;2023-07-09T03:55:55;101461.53;;;11.58;100.00
53262;BME280;39658;51.090;-1.786;2023-07-09T03:58:25;101464.34;;;11.55;100.00
53262;BME280;39658;51.090;-1.786;2023-07-09T04:00:51;101468.75;;;11.54;100.00
53262;BME280;39658;51.090;-1.786;2023-07-09T04:03:19;101465.28;;;11.54;100.00
53262;BME280;39658;51.090;-1.786;2023-07-09T04:05:47;101465.28;;;11.54;100.00
53262;BME280;39658;51.090;-1.786;2023-07-09T04:08:14;101475.00;;;11.53;100.00
53262;BME280;39658;51.090;-1.786;2023-07-09T04:10:41;101472.25;;;11.55;100.00
53262;BME280;39658;51.090;-1.786;2023-07-09T04:13:07;101465.94;;;11.57;100.00
53262;BME280;39658;51.090;-1.786;2023-07-09T04:15:36;101483.41;;;11.60;100.00
53262;BME280;39658;51.090;-1.786;2023-07-09T04:18:02;101480.09;;;11.56;100.00
53262;BME280;39658;51.090;-1.786;2023-07-09T04:20:29;101494.06;;;11.58;100.00
53262;BME280;39658;51.090;-1.786;2023-07-09T04:22:56;101500.88;;;11.62;100.00
53262;BME280;39658;51.090;-1.786;2023-07-09T04:25:23;101498.97;;;11.64;100.00
53262;BME280;39658;51.090;-1.786;2023-07-09T04:27:50;101494.38;;;11.68;100.00
53262;BME280;39658;51.090;-1.786;2023-07-09T04:30:16;101491.44;;;11.73;100.00
53262;BME280;39658;51.090;-1.786;2023-07-09T04:32:45;101495.53;;;11.78;100.00
53262;BME280;39658;51.090;-1.786;2023-07-09T04:35:13;101500.56;;;11.83;100.00
53262;BME280;39658;51.090;-1.786;2023-07-09T04:37:40;101510.75;;;11.89;100.00
53262;BME280;39658;51.090;-1.786;2023-07-09T04:40:08;101517.59;;;11.93;100.00
53262;BME280;39658;51.090;-1.786;2023-07-09T04:42:38;101522.63;;;11.98;100.00
53262;BME280;39658;51.090;-1.786;2023-07-09T04:45:07;101509.13;;;12.02;100.00
53262;BME280;39658;51.090;-1.786;2023-07-09T04:47:35;101504.59;;;12.05;100.00
53262;BME280;39658;51.090;-1.786;2023-07-09T04:50:05;101498.94;;;12.11;100.00
53262;BME280;39658;51.090;-1.786;2023-07-09T04:52:32;101497.63;;;12.18;100.00
53262;BME280;39658;51.090;-1.786;2023-07-09T04:54:59;101497.44;;;12.21;100.00
53262;BME280;39658;51.090;-1.786;2023-07-09T04:57:27;101497.25;;;12.24;100.00
53262;BME280;39658;51.090;-1.786;2023-07-09T04:59:54;101497.06;;;12.27;100.00
53262;BME280;39658;51.090;-1.786;2023-07-09T05:02:22;101499.50;;;12.30;100.00
53262;BME280;39658;51.090;-1.786;2023-07-09T05:04:49;101497.56;;;12.34;100.00
53262;BME280;39658;51.090;-1.786;2023-07-09T05:07:17;101502.66;;;12.37;100.00
53262;BME280;39658;51.090;-1.786;2023-07-09T05:09:44;101505.94;;;12.41;100.00
53262;BME280;39658;51.090;-1.786;2023-07-09T05:12:10;101506.69;;;12.43;100.00
53262;BME280;39658;51.090;-1.786;2023-07-09T05:14:37;101506.41;;;12.47;100.00
53262;BME280;39658;51.090;-1.786;2023-07-09T05:17:04;101507.09;;;12.51;100.00
53262;BME280;39658;51.090;-1.786;2023-07-09T05:19:32;101513.97;;;12.53;100.00
53262;BME280;39658;51.090;-1.786;2023-07-09T05:21:59;101511.03;;;12.58;100.00
53262;BME280;39658;51.090;-1.786;2023-07-09T05:24:27;101514.38;;;12.62;100.00
53262;BME280;39658;51.090;-1.786;2023-07-09T05:26:54;101520.03;;;12.70;100.00
53262;BME280;39658;51.090;-1.786;2023-07-09T05:29:21;101521.66;;;12.72;100.00
53262;BME280;39658;51.090;-1.786;2023-07-09T05:31:48;101534.69;;;12.75;100.00
53262;BME280;39658;51.090;-1.786;2023-07-09T05:34:15;101559.25;;;12.78;100.00
53262;BME280;39658;51.090;-1.786;2023-07-09T05:36:42;101561.06;;;12.77;100.00
53262;BME280;39658;51.090;-1.786;2023-07-09T05:39:10;101562.81;;;12.77;100.00
53262;BME280;39658;51.090;-1.786;2023-07-09T05:41:38;101562.91;;;12.75;100.00
53262;BME280;39658;51.090;-1.786;2023-07-09T05:44:05;101569.19;;;12.74;100.00
53262;BME280;39658;51.090;-1.786;2023-07-09T05:46:34;101567.47;;;12.73;100.00
53262;BME280;39658;51.090;-1.786;2023-07-09T05:49:02;101574.66;;;12.71;100.00
53262;BME280;39658;51.090;-1.786;2023-07-09T05:51:29;101567.19;;;12.63;100.00
53262;BME280;39658;51.090;-1.786;2023-07-09T05:53:56;101567.38;;;12.60;100.00
53262;BME280;39658;51.090;-1.786;2023-07-09T05:56:23;101552.34;;;12.61;100.00
53262;BME280;39658;51.090;-1.786;2023-07-09T05:58:51;101552.06;;;12.65;100.00
53262;BME280;39658;51.090;-1.786;2023-07-09T06:01:18;101555.25;;;12.70;100.00
53262;BME280;39658;51.090;-1.786;2023-07-09T06:03:45;101555.84;;;12.75;100.00
53262;BME280;39658;51.090;-1.786;2023-07-09T06:06:12;101550.25;;;12.80;100.00
53262;BME280;39658;51.090;-1.786;2023-07-09T06:08:39;101548.00;;;12.88;100.00
53262;BME280;39658;51.090;-1.786;2023-07-09T06:11:06;101552.63;;;12.99;100.00
53262;BME280;39658;51.090;-1.786;2023-07-09T06:13:33;101548.41;;;13.09;100.00
53262;BME280;39658;51.090;-1.786;2023-07-09T06:16:01;101544.63;;;13.14;100.00
53262;BME280;39658;51.090;-1.786;2023-07-09T06:18:28;101544.34;;;13.18;100.00
53262;BME280;39658;51.090;-1.786;2023-07-09T06:20:56;101561.06;;;13.19;100.00
53262;BME280;39658;51.090;-1.786;2023-07-09T06:23:24;101559.50;;;13.16;100.00
53262;BME280;39658;51.090;-1.786;2023-07-09T06:25:51;101563.06;;;13.15;100.00
53262;BME280;39658;51.090;-1.786;2023-07-09T06:28:20;101585.38;;;13.11;100.00
53262;BME280;39658;51.090;-1.786;2023-07-09T06:30:48;101588.03;;;13.11;100.00
53262;BME280;39658;51.090;-1.786;2023-07-09T06:33:18;101590.03;;;13.07;100.00
53262;BME280;39658;51.090;-1.786;2023-07-09T06:35:48;101592.03;;;13.04;100.00
53262;BME280;39658;51.090;-1.786;2023-07-09T06:38:15;101590.13;;;13.06;100.00
53262;BME280;39658;51.090;-1.786;2023-07-09T06:40:42;101579.00;;;13.01;100.00
53262;BME280;39658;51.090;-1.786;2023-07-09T06:43:09;101586.16;;;12.99;100.00
53262;BME280;39658;51.090;-1.786;2023-07-09T06:45:36;101597.63;;;12.99;100.00
53262;BME280;39658;51.090;-1.786;2023-07-09T06:48:04;101583.41;;;13.00;100.00
53262;BME280;39658;51.090;-1.786;2023-07-09T06:50:34;101592.31;;;12.99;100.00
53262;BME280;39658;51.090;-1.786;2023-07-09T06:53:01;101614.25;;;13.01;100.00
53262;BME280;39658;51.090;-1.786;2023-07-09T06:55:28;101628.13;;;13.05;100.00
53262;BME280;39658;51.090;-1.786;2023-07-09T06:57:54;101645.72;;;13.06;100.00
53262;BME280;39658;51.090;-1.786;2023-07-09T07:00:21;101647.34;;;13.08;100.00
53262;BME280;39658;51.090;-1.786;2023-07-09T07:02:48;101640.34;;;13.07;100.00
53262;BME280;39658;51.090;-1.786;2023-07-09T07:05:15;101656.22;;;13.07;100.00
53262;BME280;39658;51.090;-1.786;2023-07-09T07:07:44;101639.41;;;13.08;100.00
53262;BME280;39658;51.090;-1.786;2023-07-09T07:10:11;101642.88;;;13.09;100.00
53262;BME280;39658;51.090;-1.786;2023-07-09T07:12:43;101641.19;;;13.08;100.00
53262;BME280;39658;51.090;-1.786;2023-07-09T07:15:11;101626.91;;;13.10;100.00
53262;BME280;39658;51.090;-1.786;2023-07-09T07:17:38;101616.41;;;13.09;100.00
53262;BME280;39658;51.090;-1.786;2023-07-09T07:20:06;101610.09;;;13.11;100.00
53262;BME280;39658;51.090;-1.786;2023-07-09T07:22:33;101591.47;;;13.13;100.00
53262;BME280;39658;51.090;-1.786;2023-07-09T07:25:02;101585.69;;;13.21;100.00
53262;BME280;39658;51.090;-1.786;2023-07-09T07:27:29;101589.63;;;13.28;100.00
53262;BME280;39658;51.090;-1.786;2023-07-09T07:29:55;101596.28;;;13.35;100.00
53262;BME280;39658;51.090;-1.786;2023-07-09T07:32:23;101594.94;;;13.42;100.00
53262;BME280;39658;51.090;-1.786;2023-07-09T07:34:49;101596.13;;;13.51;100.00
53262;BME280;39658;51.090;-1.786;2023-07-09T07:37:18;101605.09;;;13.63;100.00
53262;BME280;39658;51.090;-1.786;2023-07-09T07:39:46;101596.19;;;13.64;100.00
53262;BME280;39658;51.090;-1.786;2023-07-09T07:42:14;101604.50;;;13.72;100.00
53262;BME280;39658;51.090;-1.786;2023-07-09T07:44:41;101586.91;;;13.84;100.00
53262;BME280;39658;51.090;-1.786;2023-07-09T07:47:08;101588.03;;;13.94;100.00
53262;BME280;39658;51.090;-1.786;2023-07-09T07:49:35;101592.50;;;14.07;100.00
53262;BME280;39658;51.090;-1.786;2023-07-09T07:52:01;101605.25;;;14.14;100.00
53262;BME280;39658;51.090;-1.786;2023-07-09T07:54:29;101603.25;;;14.31;100.00
53262;BME280;39658;51.090;-1.786;2023-07-09T07:56:56;101600.22;;;14.50;100.00
53262;BME280;39658;51.090;-1.786;2023-07-09T07:59:25;101606.06;;;14.68;100.00
53262;BME280;39658;51.090;-1.786;2023-07-09T08:01:52;101608.28;;;14.74;100.00
53262;BME280;39658;51.090;-1.786;2023-07-09T08:04:18;101605.44;;;14.77;100.00
53262;BME280;39658;51.090;-1.786;2023-07-09T08:06:45;101603.00;;;14.74;100.00
53262;BME280;39658;51.090;-1.786;2023-07-09T08:09:12;101593.44;;;14.84;100.00
53262;BME280;39658;51.090;-1.786;2023-07-09T08:11:39;101596.19;;;14.96;100.00
53262;BME280;39658;51.090;-1.786;2023-07-09T08:14:06;101598.22;;;14.92;100.00
53262;BME280;39658;51.090;-1.786;2023-07-09T08:16:34;101594.59;;;14.93;100.00
53262;BME280;39658;51.090;-1.786;2023-07-09T08:19:01;101596.19;;;14.96;100.00
53262;BME280;39658;51.090;-1.786;2023-07-09T08:21:28;101584.88;;;15.18;100.00
53262;BME280;39658;51.090;-1.786;2023-07-09T08:23:55;101601.00;;;15.28;100.00
53262;BME280;39658;51.090;-1.786;2023-07-09T08:26:21;101601.44;;;15.21;100.00
53262;BME280;39658;51.090;-1.786;2023-07-09T08:28:49;101599.97;;;15.17;100.00
53262;BME280;39658;51.090;-1.786;2023-07-09T08:31:16;101599.13;;;15.17;100.00
53262;BME280;39658;51.090;-1.786;2023-07-09T08:33:44;101606.53;;;15.24;100.00
53262;BME280;39658;51.090;-1.786;2023-07-09T08:36:11;101605.88;;;15.34;100.00
53262;BME280;39658;51.090;-1.786;2023-07-09T08:38:38;101609.66;;;15.42;100.00
53262;BME280;39658;51.090;-1.786;2023-07-09T08:41:09;101610.44;;;15.44;100.00
53262;BME280;39658;51.090;-1.786;2023-07-09T08:43:51;101620.72;;;15.73;100.00
53262;BME280;39658;51.090;-1.786;2023-07-09T08:46:28;101624.19;;;16.11;100.00
53262;BME280;39658;51.090;-1.786;2023-07-09T08:48:59;101630.31;;;16.36;100.00
53262;BME280;39658;51.090;-1.786;2023-07-09T08:51:34;101639.28;;;16.46;100.00
53262;BME280;39658;51.090;-1.786;2023-07-09T08:54:08;101645.84;;;16.53;100.00
53262;BME280;39658;51.090;-1.786;2023-07-09T08:56:36;101650.72;;;16.71;100.00
53262;BME280;39658;51.090;-1.786;2023-07-09T08:59:03;101653.44;;;16.93;100.00
53262;BME280;39658;51.090;-1.786;2023-07-09T09:01:34;101662.88;;;16.97;100.00
53262;BME280;39658;51.090;-1.786;2023-07-09T09:04:07;101666.78;;;17.16;100.00
53262;BME280;39658;51.090;-1.786;2023-07-09T09:06:42;101685.22;;;17.74;100.00
53262;BME280;39658;51.090;-1.786;2023-07-09T09:09:20;101705.84;;;18.27;100.00
53262;BME280;39658;51.090;-1.786;2023-07-09T09:11:53;101724.25;;;18.41;100.00
53262;BME280;39658;51.090;-1.786;2023-07-09T09:14:29;101733.91;;;18.10;100.00
53262;BME280;39658;51.090;-1.786;2023-07-09T09:16:57;101717.69;;;18.02;100.00
53262;BME280;39658;51.090;-1.786;2023-07-09T09:19:28;101718.31;;;17.83;100.00
53262;BME280;39658;51.090;-1.786;2023-07-09T09:21:59;101717.47;;;17.71;100.00
53262;BME280;39658;51.090;-1.786;2023-07-09T09:24:31;101716.19;;;17.65;100.00
53262;BME280;39658;51.090;-1.786;2023-07-09T09:27:01;101714.34;;;17.66;100.00
53262;BME280;39658;51.090;-1.786;2023-07-09T09:29:28;101718.56;;;18.35;100.00
53262;BME280;39658;51.090;-1.786;2023-07-09T09:31:57;101724.88;;;18.87;100.00
53262;BME280;39658;51.090;-1.786;2023-07-09T09:34:28;101741.19;;;19.36;100.00
53262;BME280;39658;51.090;-1.786;2023-07-09T09:36:56;101770.38;;;19.89;100.00
53262;BME280;39658;51.090;-1.786;2023-07-09T09:39:23;101790.91;;;20.30;100.00
53262;BME280;39658;51.090;-1.786;2023-07-09T09:41:53;101838.91;;;20.72;100.00
53262;BME280;39658;51.090;-1.786;2023-07-09T09:44:24;101894.34;;;20.91;100.00
53262;BME280;39658;51.090;-1.786;2023-07-09T09:46:51;101946.97;;;20.82;100.00
53262;BME280;39658;51.090;-1.786;2023-07-09T09:49:18;101942.88;;;20.88;100.00
53262;BME280;39658;51.090;-1.786;2023-07-09T09:51:47;101960.06;;;20.75;100.00
53262;BME280;39658;51.090;-1.786;2023-07-09T09:54:17;101964.91;;;20.51;100.00
53262;BME280;39658;51.090;-1.786;2023-07-09T09:56:44;101939.34;;;20.97;100.00
53262;BME280;39658;51.090;-1.786;2023-07-09T09:59:18;101938.50;;;20.87;100.00
53262;BME280;39658;51.090;-1.786;2023-07-09T10:01:45;101922.16;;;21.29;100.00
53262;BME280;39658;51.090;-1.786;2023-07-09T10:04:17;101936.94;;;21.62;100.00
53262;BME280;39658;51.090;-1.786;2023-07-09T10:06:50;101978.06;;;21.53;100.00
53262;BME280;39658;51.090;-1.786;2023-07-09T10:09:35;101950.19;;;21.83;100.00
53262;BME280;39658;51.090;-1.786;2023-07-09T10:12:14;101957.56;;;22.09;100.00
53262;BME280;39658;51.090;-1.786;2023-07-09T10:14:49;101987.25;;;22.08;100.00
53262;BME280;39658;51.090;-1.786;2023-07-09T10:17:23;102014.69;;;22.01;100.00
53262;BME280;39658;51.090;-1.786;2023-07-09T10:19:57;102005.47;;;21.66;100.00
53262;BME280;39658;51.090;-1.786;2023-07-09T10:22:40;101967.97;;;21.94;100.00
53262;BME280;39658;51.090;-1.786;2023-07-09T10:25:16;101984.72;;;22.16;100.00
53262;BME280;39658;51.090;-1.786;2023-07-09T10:27:57;102004.19;;;22.37;100.00
53262;BME280;39658;51.090;-1.786;2023-07-09T10:30:39;102004.22;;;22.55;100.00
53262;BME280;39658;51.090;-1.786;2023-07-09T10:33:09;102004.00;;;22.67;100.00
53262;BME280;39658;51.090;-1.786;2023-07-09T10:35:40;102031.75;;;22.30;100.00
53262;BME280;39658;51.090;-1.786;2023-07-09T10:38:20;102005.47;;;22.23;100.00
53262;BME280;39658;51.090;-1.786;2023-07-09T10:40:52;102021.00;;;22.67;100.00
53262;BME280;39658;51.090;-1.786;2023-07-09T10:43:25;102024.38;;;22.97;100.00
53262;BME280;39658;51.090;-1.786;2023-07-09T10:45:59;102041.91;;;23.01;100.00
53262;BME280;39658;51.090;-1.786;2023-07-09T10:48:33;102072.28;;;23.11;100.00
53262;BME280;39658;51.090;-1.786;2023-07-09T10:51:02;102105.66;;;22.53;100.00
53262;BME280;39658;51.090;-1.786;2023-07-09T10:53:35;102087.19;;;22.21;100.00
53262;BME280;39658;51.090;-1.786;2023-07-09T10:56:08;102055.28;;;21.98;100.00
53262;BME280;39658;51.090;-1.786;2023-07-09T10:58:42;102084.50;;;22.21;100.00
53262;BME280;39658;51.090;-1.786;2023-07-09T11:01:12;102081.47;;;21.77;100.00
53262;BME280;39658;51.090;-1.786;2023-07-09T11:03:43;102067.41;;;21.34;100.00
53262;BME280;39658;51.090;-1.786;2023-07-09T11:06:18;102034.72;;;21.60;100.00
53262;BME280;39658;51.090;-1.786;2023-07-09T11:08:49;102063.22;;;21.51;100.00
53262;BME280;39658;51.090;-1.786;2023-07-09T11:11:25;102068.03;;;21.77;100.00
53262;BME280;39658;51.090;-1.786;2023-07-09T11:13:57;102083.63;;;22.40;100.00
53262;BME280;39658;51.090;-1.786;2023-07-09T11:16:28;102125.59;;;22.88;100.00
53262;BME280;39658;51.090;-1.786;2023-07-09T11:18:59;102120.28;;;22.31;100.00
53262;BME280;39658;51.090;-1.786;2023-07-09T11:21:26;102089.91;;;23.24;100.00
53262;BME280;39658;51.090;-1.786;2023-07-09T11:23:57;102126.16;;;23.47;100.00
53262;BME280;39658;51.090;-1.786;2023-07-09T11:26:26;102150.91;;;22.58;100.00
53262;BME280;39658;51.090;-1.786;2023-07-09T11:28:55;102160.97;;;22.46;100.00
53262;BME280;39658;51.090;-1.786;2023-07-09T11:31:24;102181.47;;;21.88;100.00
53262;BME280;39658;51.090;-1.786;2023-07-09T11:34:02;102164.63;;;21.57;100.00
53262;BME280;39658;51.090;-1.786;2023-07-09T11:36:30;102162.75;;;21.48;100.00
53262;BME280;39658;51.090;-1.786;2023-07-09T11:39:00;102165.19;;;21.51;100.00
53262;BME280;39658;51.090;-1.786;2023-07-09T11:41:38;102157.25;;;21.40;100.00
53262;BME280;39658;51.090;-1.786;2023-07-09T11:44:14;102164.81;;;21.34;100.00
53262;BME280;39658;51.090;-1.786;2023-07-09T11:46:50;102162.66;;;21.09;100.00
53262;BME280;39658;51.090;-1.786;2023-07-09T11:49:21;102167.09;;;20.98;100.00
53262;BME280;39658;51.090;-1.786;2023-07-09T11:51:53;102166.13;;;21.00;100.00
53262;BME280;39658;51.090;-1.786;2023-07-09T11:54:23;102151.78;;;21.10;100.00
53262;BME280;39658;51.090;-1.786;2023-07-09T11:56:57;102139.81;;;21.24;100.00
53262;BME280;39658;51.090;-1.786;2023-07-09T11:59:24;102150.91;;;21.10;100.00
53262;BME280;39658;51.090;-1.786;2023-07-09T12:01:52;102152.88;;;21.08;100.00
53262;BME280;39658;51.090;-1.786;2023-07-09T12:04:22;102144.47;;;21.22;100.00
53262;BME280;39658;51.090;-1.786;2023-07-09T12:06:52;102113.41;;;21.80;100.00
53262;BME280;39658;51.090;-1.786;2023-07-09T12:09:31;102054.69;;;22.89;100.00
53262;BME280;39658;51.090;-1.786;2023-07-09T12:11:58;101937.00;;;23.01;100.00
53262;BME280;39658;51.090;-1.786;2023-07-09T12:14:25;101897.75;;;23.26;100.00
53262;BME280;39658;51.090;-1.786;2023-07-09T12:16:53;101850.66;;;23.57;100.00
53262;BME280;39658;51.090;-1.786;2023-07-09T12:19:21;101868.44;;;24.02;100.00
53262;BME280;39658;51.090;-1.786;2023-07-09T12:21:50;101855.78;;;23.16;100.00
53262;BME280;39658;51.090;-1.786;2023-07-09T12:24:20;101843.72;;;23.02;100.00
53262;BME280;39658;51.090;-1.786;2023-07-09T12:26:49;101875.94;;;23.64;100.00
53262;BME280;39658;51.090;-1.786;2023-07-09T12:29:17;101827.00;;;23.34;100.00
53262;BME280;39658;51.090;-1.786;2023-07-09T12:31:44;101814.69;;;22.87;100.00
53262;BME280;39658;51.090;-1.786;2023-07-09T12:34:13;101813.84;;;23.31;100.00
53262;BME280;39658;51.090;-1.786;2023-07-09T12:36:44;101769.78;;;23.06;100.00
53262;BME280;39658;51.090;-1.786;2023-07-09T12:39:12;101753.47;;;22.81;100.00